createdAt,value
2022-10-11T04:40:33.475Z,10.77
2022-10-11T04:43:36.848Z,10.93
2022-10-11T04:46:39.548Z,10.82
2022-10-11T04:49:42.527Z,10.63
2022-10-11T04:52:45.188Z,10.68
2022-10-11T04:55:58.647Z,13.80
2022-10-11T04:59:01.322Z,9.23
2022-10-11T05:02:04.181Z,7.47
2022-10-11T05:05:07.307Z,10.63
2022-10-11T05:08:10.259Z,9.80
2022-10-11T05:11:15.930Z,9.13
2022-10-11T05:14:20.306Z,9.00
2022-10-11T05:17:22.936Z,14.40
2022-10-11T05:20:26.154Z,9.68
2022-10-11T05:23:29.963Z,24.23
2022-10-11T05:26:32.938Z,21.23
2022-10-11T05:29:35.585Z,13.05
2022-10-11T05:32:38.822Z,9.43
2022-10-11T05:35:41.676Z,15.52
2022-10-11T05:38:44.723Z,13.07
2022-10-11T05:41:47.462Z,8.85
2022-10-11T05:44:50.333Z,12.43
2022-10-11T05:47:53.000Z,14.10
2022-10-11T05:51:00.851Z,8.35
2022-10-11T05:54:03.434Z,11.15
2022-10-11T05:57:06.379Z,10.15
2022-10-11T06:00:10.349Z,11.02
2022-10-11T06:03:15.277Z,15.63
2022-10-11T06:06:18.923Z,10.60
2022-10-11T06:09:21.539Z,15.77
2022-10-11T06:12:24.656Z,12.98
2022-10-11T06:15:27.650Z,8.88
2022-10-11T06:18:31.517Z,10.35
2022-10-11T06:21:34.535Z,10.70
2022-10-11T06:24:37.434Z,11.25
2022-10-11T06:27:40.015Z,13.70
2022-10-11T06:30:42.855Z,14.63
2022-10-11T06:33:45.495Z,10.20
2022-10-11T06:36:48.437Z,16.08
2022-10-11T07:42:45.371Z,9.68
2022-10-11T07:45:53.708Z,10.68
2022-10-11T07:48:56.453Z,7.18
2022-10-11T07:51:59.405Z,6.07
2022-10-11T07:55:02.019Z,9.57
2022-10-11T07:58:04.982Z,7.03
2022-10-11T08:01:10.143Z,12.37
2022-10-11T08:04:13.312Z,13.23
2022-10-11T08:07:15.885Z,8.82
2022-10-11T08:10:19.434Z,5.37
2022-10-11T08:13:22.112Z,7.35
2022-10-11T08:16:25.303Z,10.73
2022-10-11T08:19:28.262Z,7.82
2022-10-11T08:22:31.217Z,7.10
2022-10-11T08:25:38.694Z,7.75
2022-10-11T08:28:41.732Z,7.72
2022-10-11T08:31:44.690Z,6.25
2022-10-11T08:34:47.633Z,21.30
2022-10-11T08:37:50.830Z,13.45
2022-10-11T08:40:58.646Z,8.77
2022-10-11T08:44:04.285Z,9.45
2022-10-11T08:47:25.872Z,8.68
2022-10-11T08:50:28.640Z,7.95
2022-10-11T08:53:41.449Z,10.02
2022-10-11T08:56:45.430Z,10.20
2022-10-11T08:59:56.805Z,8.35
2022-10-11T09:03:23.798Z,9.43
2022-10-11T09:06:31.917Z,13.23
2022-10-11T09:10:12.184Z,11.82
2022-10-11T09:13:34.201Z,11.80
2022-10-11T09:16:46.668Z,11.95
2022-10-11T09:20:04.650Z,9.55
2022-10-11T09:23:16.329Z,13.62
2022-10-11T09:26:30.790Z,11.95
2022-10-11T09:29:33.305Z,8.93
2022-10-11T09:32:40.207Z,13.20
2022-10-11T09:35:49.684Z,10.38
2022-10-11T09:39:06.469Z,13.18
2022-10-11T09:42:11.313Z,15.50
2022-10-11T09:45:22.607Z,12.07
2022-10-11T09:48:30.592Z,10.93
2022-10-11T09:51:34.621Z,12.10
2022-10-11T09:54:39.092Z,13.05
2022-10-11T09:57:42.106Z,10.80
2022-10-11T10:01:02.806Z,9.18
2022-10-11T10:04:13.419Z,9.57
2022-10-11T10:07:16.105Z,9.35
2022-10-11T10:10:59.547Z,11.05
2022-10-11T10:14:02.520Z,10.48
2022-10-11T10:17:23.786Z,9.25
2022-10-11T10:20:31.812Z,11.82
2022-10-11T10:23:37.582Z,13.02
2022-10-11T10:26:40.578Z,11.95
2022-10-11T10:29:59.525Z,11.80
2022-10-11T10:33:07.385Z,10.00
2022-10-11T10:36:18.816Z,10.05
2022-10-11T10:39:24.445Z,15.15
2022-10-11T10:42:28.252Z,11.07
2022-10-11T10:46:09.905Z,12.10
2022-10-11T10:49:41.555Z,11.40
2022-10-11T10:52:53.649Z,12.23
2022-10-11T10:56:18.316Z,12.10
2022-10-11T10:59:30.358Z,14.50
2022-10-11T11:02:42.525Z,12.23
2022-10-11T11:05:54.493Z,13.90
2022-10-11T11:09:20.754Z,13.93
2022-10-11T11:12:23.379Z,14.85
2022-10-11T11:15:45.658Z,12.43
2022-10-11T11:18:58.407Z,17.80
2022-10-11T11:22:13.531Z,12.13
2022-10-11T11:25:35.914Z,17.58
2022-10-11T11:28:48.329Z,14.93
2022-10-11T11:32:11.726Z,12.88
2022-10-11T11:35:46.427Z,12.00
2022-10-11T11:38:55.571Z,14.48
2022-10-11T11:42:07.977Z,17.00
2022-10-11T11:45:36.360Z,11.52
2022-10-11T11:48:40.293Z,12.13
2022-10-11T11:51:45.604Z,17.37
2022-10-11T11:55:03.724Z,10.20
2022-10-11T11:58:22.431Z,12.90
2022-10-11T12:01:32.902Z,12.27
2022-10-11T12:04:39.925Z,11.07
2022-10-11T12:08:06.607Z,11.45
2022-10-11T12:11:21.474Z,11.45
2022-10-11T12:14:24.985Z,17.23
2022-10-11T12:17:28.421Z,18.92
2022-10-11T12:20:38.114Z,13.23
2022-10-11T12:23:44.638Z,13.85
2022-10-11T12:26:55.256Z,14.95
2022-10-11T12:29:58.205Z,16.00
2022-10-11T12:33:13.817Z,9.73
2022-10-11T12:36:34.150Z,15.02
2022-10-11T12:39:44.733Z,14.90
2022-10-11T12:43:16.685Z,16.35
2022-10-11T12:46:28.483Z,12.32
2022-10-11T12:50:04.933Z,15.60
2022-10-11T12:53:57.706Z,15.00
2022-10-11T12:57:12.165Z,15.38
2022-10-11T13:00:28.975Z,18.15
2022-10-11T13:03:40.295Z,15.75
2022-10-11T13:06:56.772Z,12.60
2022-10-11T13:10:00.311Z,14.73
2022-10-11T13:13:06.750Z,11.63
2022-10-11T13:16:14.371Z,16.98
2022-10-11T13:19:17.693Z,12.57
2022-10-11T13:22:23.729Z,13.43
2022-10-11T13:25:29.510Z,11.73
2022-10-11T13:28:36.278Z,15.23
2022-10-11T13:31:40.837Z,16.98
2022-10-11T13:34:46.910Z,14.95
2022-10-11T13:37:49.928Z,14.87
2022-10-11T13:40:53.166Z,14.13
2022-10-11T13:43:58.192Z,14.23
2022-10-11T13:47:01.204Z,13.93
2022-10-11T13:50:16.282Z,12.90
2022-10-11T13:53:19.146Z,12.18
2022-10-11T13:56:21.898Z,10.27
2022-10-11T13:59:28.212Z,15.20
2022-10-11T14:02:32.508Z,14.93
2022-10-11T14:05:44.569Z,16.73
2022-10-11T14:08:55.330Z,13.35
2022-10-11T14:12:40.568Z,9.23
2022-10-11T14:15:43.126Z,15.75
2022-10-11T14:18:48.745Z,12.18
2022-10-11T14:21:53.389Z,17.12
2022-10-11T14:24:56.936Z,13.15
2022-10-11T14:27:59.912Z,16.10
2022-10-11T14:31:03.177Z,14.15
2022-10-11T14:34:06.338Z,15.05
2022-10-11T14:37:12.580Z,13.62
2022-10-11T14:40:24.232Z,10.82
2022-10-11T14:43:27.352Z,16.23
2022-10-11T14:46:31.053Z,16.27
2022-10-11T14:49:37.182Z,13.50
2022-10-11T14:52:42.955Z,20.42
2022-10-11T14:55:46.296Z,16.15
2022-10-11T14:58:52.519Z,19.95
2022-10-11T15:01:55.533Z,17.67
2022-10-11T15:04:58.309Z,11.85
2022-10-11T15:08:05.959Z,14.73
2022-10-11T15:11:11.664Z,14.65
2022-10-11T15:14:15.158Z,15.68
2022-10-11T15:17:18.237Z,14.70
2022-10-11T15:20:42.632Z,16.75
2022-10-11T15:23:54.801Z,24.25
2022-10-11T15:26:57.900Z,18.03
2022-10-11T15:30:17.828Z,14.38
2022-10-11T15:33:48.631Z,17.95
2022-10-11T15:45:41.007Z,27.42
2022-10-11T15:48:55.662Z,37.22
2022-10-11T15:52:13.536Z,32.15
2022-10-11T15:56:17.217Z,25.87
2022-10-11T15:59:22.415Z,48.05
2022-10-11T16:09:16.717Z,31.60
2022-10-11T16:12:45.382Z,25.98
2022-10-11T16:16:11.411Z,24.00
2022-10-11T16:19:54.384Z,25.23
2022-10-11T16:23:03.930Z,27.20
2022-10-11T16:26:49.813Z,20.98
2022-10-11T16:29:54.485Z,22.77
2022-10-11T16:33:03.583Z,32.13
2022-10-11T16:36:26.649Z,25.83
2022-10-11T16:39:29.913Z,27.10
2022-10-11T16:42:53.030Z,27.67
2022-10-11T16:49:52.442Z,22.42
2022-10-11T16:56:59.712Z,27.87
2022-10-11T17:00:26.770Z,33.00
2022-10-11T17:03:29.668Z,24.02
2022-10-11T17:06:33.415Z,26.87
2022-10-11T17:09:44.001Z,25.00
2022-10-11T17:13:18.987Z,36.30
2022-10-11T17:16:55.488Z,23.42
2022-10-11T17:20:32.640Z,23.60
2022-10-11T17:42:12.311Z,17.23
2022-10-11T17:45:15.582Z,9.90
2022-10-11T17:48:18.571Z,10.95
2022-10-11T17:51:28.403Z,11.02
2022-10-11T17:54:31.466Z,10.48
2022-10-11T17:57:34.692Z,11.18
2022-10-11T18:00:39.472Z,10.43
2022-10-11T18:03:50.310Z,16.27
2022-10-11T18:06:53.739Z,11.40
2022-10-11T18:09:57.171Z,19.75
2022-10-11T18:13:04.346Z,17.80
2022-10-11T18:16:30.668Z,24.20
2022-10-11T18:19:33.330Z,15.35
2022-10-11T18:22:36.744Z,14.15
2022-10-11T18:25:40.036Z,14.18
2022-10-11T18:28:43.851Z,17.15
2022-10-11T18:35:25.195Z,12.40
2022-10-11T18:39:12.288Z,14.77
2022-10-11T18:42:20.407Z,12.65
2022-10-11T18:45:27.483Z,12.95
2022-10-11T18:48:32.723Z,12.20
2022-10-11T18:51:38.828Z,12.68
2022-10-11T18:54:46.171Z,11.63
2022-10-11T18:57:54.022Z,9.25
2022-10-11T19:01:08.401Z,16.73
2022-10-11T19:04:18.344Z,11.30
2022-10-11T19:07:22.990Z,9.10
2022-10-11T19:10:45.591Z,8.38
2022-10-11T19:14:30.333Z,10.00
2022-10-11T19:17:33.762Z,11.63
2022-10-11T19:39:32.123Z,11.93
2022-10-11T19:42:40.541Z,13.23
2022-10-11T19:45:44.166Z,14.98
2022-10-11T19:48:48.938Z,11.80
2022-10-11T19:51:53.871Z,7.93
2022-10-11T19:54:57.331Z,7.43
2022-10-11T19:58:04.544Z,10.93
2022-10-11T20:01:16.829Z,8.95
2022-10-11T20:04:54.394Z,8.07
2022-10-11T20:11:27.208Z,7.00
2022-10-11T20:14:30.485Z,10.45
2022-10-11T20:17:52.334Z,8.25
2022-10-11T20:21:01.508Z,8.15
2022-10-11T20:43:21.573Z,7.32
2022-10-11T20:46:32.409Z,10.77
2022-10-11T20:49:42.331Z,11.50
2022-10-11T20:52:46.085Z,8.93
2022-10-11T20:55:50.370Z,10.15
2022-10-11T20:58:56.401Z,7.93
2022-10-11T21:01:59.801Z,9.73
2022-10-11T21:05:03.462Z,7.68
2022-10-11T21:08:07.131Z,9.93
2022-10-11T21:11:11.673Z,9.60
2022-10-11T21:14:15.329Z,13.32
2022-10-11T21:17:18.939Z,8.38
2022-10-11T21:20:22.013Z,9.27
2022-10-11T21:23:24.960Z,8.73
2022-10-11T21:26:28.699Z,8.73
2022-10-11T21:29:31.574Z,9.20
2022-10-11T21:32:34.669Z,9.73
2022-10-11T21:35:39.890Z,8.93
2022-10-11T21:38:42.669Z,11.65
2022-10-11T21:41:45.603Z,15.05
2022-10-11T21:44:48.151Z,8.88
2022-10-11T21:47:51.211Z,9.63
2022-10-11T21:50:56.826Z,8.82
2022-10-11T21:54:00.609Z,8.07
2022-10-11T21:57:03.353Z,13.05
2022-10-11T22:00:07.357Z,13.65
2022-10-11T22:03:15.798Z,13.55
2022-10-11T22:06:18.961Z,11.85
2022-10-11T22:09:21.611Z,13.15
2022-10-11T22:12:24.577Z,10.93
2022-10-11T22:15:27.418Z,11.00
2022-10-11T22:18:33.454Z,13.25
2022-10-11T22:21:38.266Z,9.60
2022-10-11T22:24:44.306Z,8.85
2022-10-11T22:27:47.209Z,8.10
2022-10-11T22:30:50.105Z,16.62
2022-10-11T22:33:57.766Z,12.02
2022-10-11T22:37:00.669Z,13.68
2022-10-11T22:40:03.473Z,12.55
2022-10-11T22:43:06.585Z,10.90
2022-10-11T22:46:09.451Z,15.15
2022-10-11T22:49:13.053Z,11.77
2022-10-11T22:52:15.630Z,10.70
2022-10-11T22:55:20.214Z,14.95
2022-10-11T22:58:23.082Z,14.70
2022-10-11T23:01:26.026Z,10.75
2022-10-11T23:04:28.829Z,15.77
2022-10-11T23:07:31.957Z,12.20
2022-10-11T23:10:34.646Z,12.30
2022-10-11T23:13:37.547Z,10.43
2022-10-11T23:16:40.153Z,10.70
2022-10-11T23:19:43.040Z,10.98
2022-10-11T23:22:45.658Z,10.70
2022-10-11T23:25:48.995Z,11.68
2022-10-11T23:28:55.145Z,12.13
2022-10-11T23:31:58.161Z,18.77
2022-10-11T23:35:00.807Z,11.27
2022-10-11T23:38:04.064Z,12.68
2022-10-11T23:41:06.582Z,13.40
2022-10-11T23:44:12.910Z,14.13
2022-10-11T23:47:15.537Z,12.27
2022-10-11T23:50:19.321Z,11.77
2022-10-11T23:53:21.990Z,10.90
2022-10-11T23:56:25.062Z,20.48
2022-10-11T23:59:27.786Z,13.20
